Time;durP1;ratioP1;P1;durP2;ratioP2;P2;SDS_P1;SDS_P2;PMS_P1;PMS_P2;Temp;Humidity;BMP_temperature;BMP_pressure;BME280_temperature;BME280_humidity;BME280_pressure;Samples;Min_cycle;Max_cycle;Signal;HPM_P1;HPM_P2
2024/01/31 00:00:58;;;;;;;28.40;15.20;;;;;;;0.84;76.50;101115.00;79731;1294;3013760;-73
2024/01/31 00:03:24;;;;;;;31.20;15.70;;;;;;;0.79;76.42;101117.40;79740;1295;3013307;-74
2024/01/31 00:05:52;;;;;;;29.60;14.40;;;;;;;0.83;76.53;101113.81;78321;1298;3028674;-72
2024/01/31 00:08:19;;;;;;;32.10;15.20;;;;;;;0.86;76.40;101113.31;79536;1300;3013346;-72
2024/01/31 00:10:45;;;;;;;34.00;14.60;;;;;;;0.87;76.47;101108.47;79535;1299;3013258;-73
2024/01/31 00:13:13;;;;;;;26.60;14.30;;;;;;;0.84;76.56;101102.77;78313;1300;3026164;-72
2024/01/31 00:15:40;;;;;;;24.20;13.40;;;;;;;0.90;76.38;101104.17;79554;1294;3019151;-73
2024/01/31 00:18:06;;;;;;;29.10;14.10;;;;;;;0.79;76.43;101102.39;79741;1301;3013282;-71
2024/01/31 00:20:34;;;;;;;27.20;13.30;;;;;;;0.84;76.52;101102.77;78602;1296;3025364;-72
2024/01/31 00:23:01;;;;;;;27.40;12.80;;;;;;;0.82;76.47;101101.20;79651;1300;3019341;-72
2024/01/31 00:25:28;;;;;;;28.50;14.60;;;;;;;0.83;76.33;101103.29;79401;1300;3011552;-72
2024/01/31 00:27:56;;;;;;;28.10;14.80;;;;;;;0.85;76.18;101102.61;78189;1298;3028527;-73
2024/01/31 00:30:22;;;;;;;28.80;13.10;;;;;;;0.86;76.21;101096.57;79538;1298;3013364;-75
2024/01/31 00:32:49;;;;;;;28.60;12.60;;;;;;;0.86;76.26;101099.69;79510;1295;3011726;-76
2024/01/31 00:35:17;;;;;;;27.10;13.10;;;;;;;0.85;76.41;101101.05;78299;1299;3026905;-76
2024/01/31 00:37:43;;;;;;;24.00;12.90;;;;;;;0.72;76.62;101101.33;79546;1299;3018465;-75
2024/01/31 00:40:10;;;;;;;24.40;12.80;;;;;;;0.73;76.87;101104.79;79527;1300;3011874;-75
2024/01/31 00:42:39;;;;;;;26.20;12.50;;;;;;;0.73;76.87;101100.64;78427;1300;3028476;-75
2024/01/31 00:45:06;;;;;;;27.40;13.00;;;;;;;0.64;76.91;101102.48;79743;1299;3019122;-75
2024/01/31 00:47:34;;;;;;;27.90;12.90;;;;;;;0.68;76.92;101095.25;79485;1295;3011967;-75
2024/01/31 00:50:03;;;;;;;26.20;12.30;;;;;;;0.62;77.40;101094.54;78386;1301;3050758;-75
2024/01/31 00:52:29;;;;;;;27.80;13.50;;;;;;;0.60;77.32;101092.45;79629;1299;3013025;-75
2024/01/31 00:54:56;;;;;;;27.00;13.20;;;;;;;0.58;77.50;101097.09;79526;1300;3011638;-75
2024/01/31 00:57:24;;;;;;;26.60;13.00;;;;;;;0.55;77.36;101097.94;78330;1298;3051355;-75
2024/01/31 00:59:50;;;;;;;27.40;12.70;;;;;;;0.52;77.43;101097.74;79557;1299;3012929;-74
2024/01/31 01:02:17;;;;;;;27.20;13.90;;;;;;;0.54;77.50;101097.93;79484;1299;3011597;-75
2024/01/31 01:04:45;;;;;;;31.00;15.30;;;;;;;0.51;77.78;101097.57;78363;1304;3026049;-76
2024/01/31 01:07:12;;;;;;;26.50;12.70;;;;;;;0.52;77.66;101092.74;79613;1300;3013879;-76
2024/01/31 01:09:39;;;;;;;29.00;14.10;;;;;;;0.52;77.40;101093.42;79524;1300;3012783;-76
2024/01/31 01:12:07;;;;;;;24.30;14.70;;;;;;;0.55;77.47;101091.04;78362;1300;3026943;-76
2024/01/31 01:14:34;;;;;;;32.00;14.30;;;;;;;0.54;77.63;101087.23;79561;1300;3012723;-75
2024/01/31 01:17:00;;;;;;;33.20;13.00;;;;;;;0.51;77.59;101086.02;79527;1298;3011580;-76
2024/01/31 01:19:28;;;;;;;27.30;12.50;;;;;;;1.20;77.41;101086.52;78399;1296;3050950;-77
2024/01/31 01:21:56;;;;;;;25.30;12.30;;;;;;;1.77;74.57;101090.30;79713;1298;3018979;-73
2024/01/31 01:24:23;;;;;;;31.70;13.40;;;;;;;1.85;73.49;101083.24;79555;1301;3011509;-75
2024/01/31 01:26:51;;;;;;;22.70;12.80;;;;;;;1.79;73.40;101078.91;78397;1299;3050932;-74
2024/01/31 01:29:18;;;;;;;26.50;14.10;;;;;;;1.49;73.73;101081.28;79560;1300;3018789;-75
2024/01/31 01:31:44;;;;;;;27.50;13.80;;;;;;;1.47;74.02;101069.70;79531;1300;3011494;-73
2024/01/31 01:34:12;;;;;;;27.50;13.80;;;;;;;1.33;74.32;101070.88;78274;1301;3028322;-74
2024/01/31 01:36:39;;;;;;;26.50;13.60;;;;;;;1.25;74.55;101062.40;79613;1299;3013052;-72
2024/01/31 01:39:06;;;;;;;24.00;13.70;;;;;;;1.20;74.51;101065.13;79746;1301;3012230;-74
2024/01/31 01:41:33;;;;;;;28.30;14.50;;;;;;;1.05;74.96;101061.62;78398;1298;3028674;-73
2024/01/31 01:44:00;;;;;;;30.50;12.90;;;;;;;0.95;75.32;101054.34;79619;1294;3013491;-74
2024/01/31 01:46:34;;;;;;;30.30;14.80;;;;;;;0.86;75.59;101058.26;79510;1299;3013157;-73
2024/01/31 01:49:02;;;;;;;25.40;13.70;;;;;;;0.79;76.18;101053.58;78241;1304;3050451;-72
2024/01/31 01:51:29;;;;;;;27.30;15.20;;;;;;;0.77;76.12;101059.78;79535;1300;3011491;-73
2024/01/31 01:53:55;;;;;;;30.90;15.20;;;;;;;0.68;76.40;101054.89;79538;1298;3013317;-72
2024/01/31 01:56:24;;;;;;;28.80;15.20;;;;;;;0.64;76.87;101052.80;78276;1308;3026336;-75
2024/01/31 01:58:51;;;;;;;29.60;14.90;;;;;;;0.66;76.75;101051.27;79577;1306;3013172;-74
2024/01/31 02:01:18;;;;;;;30.60;15.00;;;;;;;0.66;76.82;101046.27;79645;1308;3012129;-73
2024/01/31 02:03:46;;;;;;;28.80;15.30;;;;;;;0.63;76.99;101043.67;78242;1295;3027107;-72
2024/01/31 02:06:12;;;;;;;27.20;14.70;;;;;;;0.58;77.05;101046.73;79708;1299;3018688;-73
2024/01/31 02:08:39;;;;;;;29.70;15.40;;;;;;;0.61;77.10;101047.96;79779;1301;3011762;-75
2024/01/31 02:11:07;;;;;;;30.80;14.40;;;;;;;0.68;76.46;101046.98;78468;1292;3026935;-72
2024/01/31 02:13:33;;;;;;;28.40;14.50;;;;;;;0.61;76.98;101047.79;79680;1294;3020584;-71
2024/01/31 02:16:00;;;;;;;27.10;15.40;;;;;;;0.61;77.09;101046.58;79622;1299;3011605;-72
2024/01/31 02:18:28;;;;;;;29.00;14.80;;;;;;;0.60;77.04;101047.61;78369;1298;3026773;-74
2024/01/31 02:20:55;;;;;;;31.70;15.60;;;;;;;0.53;77.36;101054.81;79825;1298;3012960;-72
2024/01/31 02:23:22;;;;;;;32.20;15.30;;;;;;;0.52;77.60;101057.22;79927;1298;3013474;-75
2024/01/31 02:25:50;;;;;;;26.40;13.20;;;;;;;0.53;77.45;101059.80;78385;1298;3026499;-72
2024/01/31 02:28:17;;;;;;;32.40;15.40;;;;;;;0.61;77.28;101059.35;79625;1298;3013629;-74
2024/01/31 02:30:44;;;;;;;33.10;16.50;;;;;;;0.62;76.85;101054.86;79861;1294;3011872;-72
2024/01/31 02:33:12;;;;;;;26.90;13.80;;;;;;;0.53;76.99;101047.05;78566;1298;3049395;-69
2024/01/31 02:35:38;;;;;;;24.40;13.50;;;;;;;0.46;77.75;101042.52;79740;1298;3015935;-71
2024/01/31 02:38:05;;;;;;;23.00;12.80;;;;;;;0.44;77.65;101033.05;79757;1294;3011535;-71
2024/01/31 02:40:33;;;;;;;23.60;12.30;;;;;;;0.49;77.53;101019.96;78479;1295;3026168;-70
2024/01/31 02:43:00;;;;;;;28.50;14.00;;;;;;;0.55;77.34;101020.85;79776;1294;3012804;-73
2024/01/31 02:45:29;;;;;;;28.50;14.10;;;;;;;0.45;77.53;101023.75;79610;1295;3011625;-74
2024/01/31 02:47:57;;;;;;;31.10;14.50;;;;;;;0.48;77.63;101017.02;78433;1296;3050651;-72
2024/01/31 02:50:25;;;;;;;32.40;15.70;;;;;;;0.49;77.71;101022.89;79769;1299;3014018;-71
2024/01/31 02:52:52;;;;;;;28.80;14.90;;;;;;;0.51;77.78;101031.70;79632;1299;3013237;-71
2024/01/31 02:55:20;;;;;;;29.10;14.20;;;;;;;0.56;77.31;101028.98;78527;1300;3049805;-70
2024/01/31 02:57:47;;;;;;;30.50;15.00;;;;;;;0.62;77.13;101033.65;79748;1296;3012736;-71
2024/01/31 03:00:16;;;;;;;31.60;15.70;;;;;;;0.56;77.25;101035.00;79575;1298;3012814;-73
2024/01/31 03:02:45;;;;;;;32.80;15.50;;;;;;;0.57;77.30;101031.90;78468;1298;3050108;-70
2024/01/31 03:05:13;;;;;;;30.80;14.10;;;;;;;0.67;77.20;101033.52;79741;1298;3013469;-71
2024/01/31 03:07:40;;;;;;;22.80;12.90;;;;;;;1.19;76.54;101034.04;79873;1295;3011702;-76
2024/01/31 03:10:09;;;;;;;29.60;13.70;;;;;;;1.84;73.96;101025.20;78488;1294;3051700;-76
2024/01/31 03:12:36;;;;;;;30.60;14.70;;;;;;;2.08;73.29;101016.70;79627;1296;3013282;-75
2024/01/31 03:15:03;;;;;;;29.50;15.60;;;;;;;2.04;72.87;101018.27;79720;1295;3011511;-75
2024/01/31 03:17:35;;;;;;;30.30;16.30;;;;;;;1.82;72.92;101014.64;78237;1300;3049600;-75
2024/01/31 03:20:06;;;;;;;39.40;17.60;;;;;;;1.57;73.72;101014.28;79456;1299;3011918;-70
2024/01/31 03:22:34;;;;;;;41.40;20.50;;;;;;;1.34;74.37;101015.28;78448;1293;3051857;-74
2024/01/31 03:25:01;;;;;;;38.50;18.50;;;;;;;1.16;75.44;101010.40;79729;1298;3012948;-72
2024/01/31 03:27:27;;;;;;;39.90;20.80;;;;;;;0.99;76.01;101010.02;79676;1294;3011691;-71
2024/01/31 03:30:01;;;;;;;41.20;20.00;;;;;;;0.93;76.38;101011.20;78403;1295;3026227;-71
2024/01/31 03:32:31;;;;;;;37.40;19.90;;;;;;;0.71;77.29;101017.48;79610;1292;3011822;-71
2024/01/31 03:34:59;;;;;;;37.50;19.10;;;;;;;0.60;77.61;101015.02;78557;1299;3049058;-72
2024/01/31 03:37:27;;;;;;;37.10;18.10;;;;;;;0.54;77.58;101010.69;79679;1300;3013045;-72
2024/01/31 03:39:54;;;;;;;38.50;19.00;;;;;;;0.53;77.88;101009.11;79606;1295;3013157;-71
2024/01/31 03:42:22;;;;;;;44.60;19.50;;;;;;;0.40;78.21;101003.02;78580;1295;3051156;-73
2024/01/31 03:44:49;;;;;;;41.40;19.10;;;;;;;0.34;78.79;100996.94;79683;1294;3015323;-72
2024/01/31 03:47:16;;;;;;;42.70;20.80;;;;;;;0.35;78.67;100999.52;79758;1297;3012015;-71
2024/01/31 03:49:45;;;;;;;37.40;17.90;;;;;;;0.43;78.22;101006.30;78305;1295;3047745;-72
2024/01/31 03:52:12;;;;;;;36.70;19.10;;;;;;;0.37;78.43;101010.73;79634;1298;3013395;-74
2024/01/31 03:54:39;;;;;;;43.70;20.40;;;;;;;0.37;78.59;101009.02;79624;1295;3013149;-70
2024/01/31 03:57:07;;;;;;;43.80;19.50;;;;;;;0.44;78.46;101011.83;78387;1294;3051163;-71
2024/01/31 03:59:33;;;;;;;37.60;19.30;;;;;;;0.48;77.86;101009.27;79725;1295;3013024;-72
2024/01/31 04:02:00;;;;;;;39.80;20.80;;;;;;;0.45;78.12;101015.63;79609;1300;3011929;-73
2024/01/31 04:04:28;;;;;;;38.40;18.80;;;;;;;0.42;78.41;101019.58;78276;1295;3026461;-76
2024/01/31 04:06:54;;;;;;;36.40;17.90;;;;;;;0.53;77.81;101024.12;79524;1298;3013718;-72
2024/01/31 04:09:21;;;;;;;37.70;18.50;;;;;;;0.47;77.92;101022.02;79667;1300;3011554;-74
2024/01/31 04:11:49;;;;;;;38.90;18.70;;;;;;;0.54;77.70;101016.71;78475;1298;3028465;-75
2024/01/31 04:14:16;;;;;;;32.90;17.20;;;;;;;0.57;77.84;101015.01;79739;1295;3015171;-73
2024/01/31 04:16:43;;;;;;;31.80;14.80;;;;;;;0.65;77.60;101005.90;79615;1295;3011775;-74
2024/01/31 04:19:11;;;;;;;30.90;15.80;;;;;;;1.22;76.56;100998.84;78432;1298;3048680;-75
2024/01/31 04:21:38;;;;;;;31.10;14.20;;;;;;;1.82;74.33;100992.52;79752;1298;3018811;-74
2024/01/31 04:24:04;;;;;;;26.90;15.30;;;;;;;1.86;73.38;100985.27;79605;1295;3011712;-74
2024/01/31 04:26:33;;;;;;;34.10;16.10;;;;;;;1.72;73.30;100983.02;78486;1298;3026245;-73
2024/01/31 04:28:59;;;;;;;31.10;16.80;;;;;;;1.55;73.66;100981.29;79373;1294;3415757;-73
2024/01/31 04:31:26;;;;;;;35.90;19.10;;;;;;;1.46;74.17;100989.73;79445;1299;3011940;-72
2024/01/31 04:33:54;;;;;;;36.00;18.60;;;;;;;1.30;74.68;100994.03;78450;1298;3026579;-74
2024/01/31 04:36:20;;;;;;;37.10;17.90;;;;;;;1.20;74.93;100995.91;79698;1294;3013560;-73
2024/01/31 04:38:47;;;;;;;34.70;18.80;;;;;;;1.19;74.82;100996.43;79677;1298;3011841;-73
2024/01/31 04:41:15;;;;;;;43.20;19.90;;;;;;;1.08;74.87;101003.48;80780;1294;3026293;-71
2024/01/31 04:43:42;;;;;;;38.10;18.30;;;;;;;1.06;75.29;101000.88;82142;1293;3013081;-73
2024/01/31 04:46:13;;;;;;;39.40;19.10;;;;;;;1.07;75.20;101001.75;82089;1293;3011493;-71
2024/01/31 04:48:42;;;;;;;43.50;19.40;;;;;;;1.03;75.27;100992.60;80796;1294;3049411;-75
2024/01/31 04:51:09;;;;;;;42.60;19.50;;;;;;;0.91;75.76;100993.92;82078;1295;3012641;-75
2024/01/31 04:53:35;;;;;;;42.50;19.20;;;;;;;0.93;75.72;100998.44;82061;1294;3011311;-75
2024/01/31 04:56:07;;;;;;;37.20;17.70;;;;;;;0.92;76.07;100993.77;80775;1298;3051015;-71
2024/01/31 04:58:34;;;;;;;44.80;20.30;;;;;;;0.91;75.87;100997.73;82103;1294;3011516;-75
2024/01/31 05:01:03;;;;;;;45.90;20.00;;;;;;;0.98;75.68;100991.02;80835;1294;3025146;-73
2024/01/31 05:03:30;;;;;;;40.90;20.00;;;;;;;1.07;75.62;100987.27;82073;1293;3012983;-73
2024/01/31 05:05:57;;;;;;;34.20;18.50;;;;;;;1.08;75.48;100992.26;81973;1293;3011588;-72
2024/01/31 05:08:28;;;;;;;37.60;19.00;;;;;;;1.14;75.32;100987.61;80800;1292;3050929;-73
2024/01/31 05:10:55;;;;;;;34.00;18.40;;;;;;;1.22;75.37;100981.94;82090;1295;3011553;-75
2024/01/31 05:13:24;;;;;;;40.80;19.70;;;;;;;1.25;75.20;100980.21;81555;1294;3011362;-75
2024/01/31 05:15:51;;;;;;;44.80;21.10;;;;;;;1.17;75.78;100982.96;82114;1294;3012691;-73
2024/01/31 05:18:17;;;;;;;46.50;20.10;;;;;;;1.20;75.26;100987.98;82092;1294;3011112;-77
2024/01/31 05:20:45;;;;;;;39.50;19.50;;;;;;;1.15;74.90;100985.72;80785;1296;3026553;-74
2024/01/31 05:23:12;;;;;;;39.70;19.00;;;;;;;1.12;74.79;100980.02;82076;1298;3011309;-71
2024/01/31 05:25:40;;;;;;;36.10;18.30;;;;;;;1.08;74.98;100982.42;82059;1294;3011881;-73
2024/01/31 05:28:14;;;;;;;35.50;19.00;;;;;;;1.11;74.98;100983.81;80810;1294;3051277;-75
2024/01/31 05:30:40;;;;;;;33.30;17.40;;;;;;;1.11;74.88;100982.95;82149;1292;3012753;-75
2024/01/31 05:33:07;;;;;;;33.00;16.70;;;;;;;1.13;74.95;100981.75;82072;1294;3011540;-77
2024/01/31 05:35:36;;;;;;;38.40;19.20;;;;;;;1.32;74.81;100983.17;80760;1292;3026659;-75
2024/01/31 05:38:03;;;;;;;38.40;18.90;;;;;;;1.33;74.56;100984.71;82080;1294;3012467;-77
2024/01/31 05:40:30;;;;;;;32.80;17.70;;;;;;;1.40;74.40;100987.66;82075;1293;3011213;-77
2024/01/31 05:42:58;;;;;;;34.60;17.70;;;;;;;1.45;74.47;100988.71;80857;1292;3051198;-70
2024/01/31 05:45:25;;;;;;;51.10;15.80;;;;;;;1.43;74.03;100983.70;82102;1293;3012997;-74
2024/01/31 05:47:51;;;;;;;32.60;16.60;;;;;;;1.45;74.02;100985.77;82086;1293;3011326;-74
2024/01/31 05:50:19;;;;;;;37.40;19.80;;;;;;;1.35;74.06;100986.80;80850;1292;3026496;-74
2024/01/31 05:52:46;;;;;;;32.90;17.50;;;;;;;1.28;74.55;100983.68;82136;1293;3018049;-75
2024/01/31 05:55:15;;;;;;;44.30;20.80;;;;;;;1.29;74.45;100986.45;82081;1297;3011257;-74
2024/01/31 05:57:47;;;;;;;38.50;21.10;;;;;;;1.32;74.59;100984.55;80807;1294;3050256;-74
2024/01/31 06:00:15;;;;;;;50.30;24.60;;;;;;;1.29;74.51;100985.76;82088;1293;3011540;-73
2024/01/31 06:02:42;;;;;;;45.20;22.30;;;;;;;1.40;74.56;100989.05;80819;1294;3048707;-74
2024/01/31 06:05:09;;;;;;;48.60;20.70;;;;;;;1.42;74.41;100993.55;82115;1293;3012759;-78
2024/01/31 06:07:36;;;;;;;43.40;22.40;;;;;;;1.41;74.13;100995.95;82074;1293;3011209;-76
2024/01/31 06:10:04;;;;;;;45.10;20.80;;;;;;;1.47;74.39;100999.95;80815;1297;3026198;-76
2024/01/31 06:12:31;;;;;;;50.40;23.80;;;;;;;1.48;74.13;100997.52;82144;1293;3012833;-72
2024/01/31 06:14:57;;;;;;;54.30;24.80;;;;;;;1.52;73.99;100993.89;82104;1298;3011235;-72
2024/01/31 06:17:25;;;;;;;59.40;26.90;;;;;;;1.54;74.37;100992.34;80848;1294;3047696;-73
2024/01/31 06:19:52;;;;;;;63.30;29.90;;;;;;;1.46;75.41;100984.05;82121;1295;3012353;-73
2024/01/31 06:22:18;;;;;;;64.70;31.50;;;;;;;1.37;76.09;100971.95;82059;1294;3011519;-73
2024/01/31 06:24:46;;;;;;;56.80;27.90;;;;;;;1.52;75.99;100969.90;80928;1294;3026328;-75
2024/01/31 06:27:14;;;;;;;54.60;26.20;;;;;;;1.37;75.94;100974.71;82133;1293;3018602;-76
2024/01/31 06:29:40;;;;;;;51.00;25.50;;;;;;;1.30;76.09;100981.44;82104;1293;3011537;-76
2024/01/31 06:32:09;;;;;;;47.00;23.40;;;;;;;1.16;75.97;100980.38;80830;1292;3049701;-75
2024/01/31 06:34:35;;;;;;;49.20;24.10;;;;;;;1.26;75.51;100975.05;82098;1295;3018236;-76
2024/01/31 06:37:02;;;;;;;53.80;26.70;;;;;;;1.29;75.33;100972.12;82097;1292;3011323;-73
2024/01/31 06:39:30;;;;;;;53.80;26.40;;;;;;;1.23;75.54;100976.41;80809;1296;3025434;-74
2024/01/31 06:41:56;;;;;;;62.60;26.80;;;;;;;1.23;75.62;100980.55;82108;1293;3013136;-74
2024/01/31 06:44:23;;;;;;;51.20;26.50;;;;;;;1.20;75.75;100982.29;82086;1294;3011259;-76
2024/01/31 06:46:51;;;;;;;63.20;25.30;;;;;;;1.25;75.35;100984.36;80835;1293;3026230;-74
2024/01/31 06:49:18;;;;;;;62.40;26.50;;;;;;;1.27;75.37;100987.99;82118;1293;3013364;-72
2024/01/31 06:51:45;;;;;;;52.90;25.00;;;;;;;1.38;74.92;100987.33;82057;1294;3011197;-76
2024/01/31 06:54:14;;;;;;;51.10;24.50;;;;;;;1.49;74.29;100990.61;80819;1294;3051273;-75
2024/01/31 06:56:40;;;;;;;52.00;25.20;;;;;;;1.60;74.47;100979.23;82117;1294;3012653;-75
2024/01/31 06:59:07;;;;;;;57.10;25.80;;;;;;;1.60;73.87;100977.66;82105;1294;3011207;-70
2024/01/31 07:01:35;;;;;;;53.60;23.80;;;;;;;1.57;73.89;100975.77;80820;1294;3047560;-74
2024/01/31 07:04:01;;;;;;;47.00;21.80;;;;;;;1.62;73.71;100975.08;82122;1293;3018013;-71
2024/01/31 07:06:28;;;;;;;49.90;25.80;;;;;;;1.69;73.82;100977.33;82082;1298;3011103;-74
2024/01/31 07:08:56;;;;;;;50.40;23.70;;;;;;;1.66;73.94;100974.55;80814;1293;3026179;-76
2024/01/31 07:11:23;;;;;;;61.90;26.10;;;;;;;1.69;73.60;100973.35;82118;1293;3012699;-76
2024/01/31 07:13:49;;;;;;;47.80;23.50;;;;;;;1.63;73.43;100969.38;82070;1294;3011286;-74
2024/01/31 07:16:18;;;;;;;43.90;22.50;;;;;;;1.56;73.48;100974.38;80848;1294;3026419;-75
2024/01/31 07:18:45;;;;;;;50.00;23.60;;;;;;;1.55;73.74;100972.31;82155;1294;3013022;-74
2024/01/31 07:21:11;;;;;;;46.60;23.30;;;;;;;1.68;73.55;100973.00;82097;1292;3011354;-76
2024/01/31 07:23:39;;;;;;;45.80;22.90;;;;;;;1.72;73.17;100978.02;80797;1295;3050697;-74
2024/01/31 07:26:06;;;;;;;59.60;23.50;;;;;;;1.68;73.35;100975.95;82120;1292;3012434;-74
2024/01/31 07:28:39;;;;;;;39.10;20.80;;;;;;;1.65;73.31;100972.84;82106;1293;3011284;-75
2024/01/31 07:31:07;;;;;;;44.10;21.90;;;;;;;1.62;73.11;100968.17;80787;1294;3049477;-75
2024/01/31 07:33:34;;;;;;;47.50;21.80;;;;;;;1.69;72.98;100970.76;82085;1293;3012573;-78
2024/01/31 07:36:02;;;;;;;47.80;22.70;;;;;;;1.74;72.67;100962.98;82075;1297;3011569;-73
2024/01/31 07:38:30;;;;;;;49.40;23.00;;;;;;;1.91;72.55;100959.86;80854;1294;3050900;-74
2024/01/31 07:40:56;;;;;;;49.20;23.70;;;;;;;1.93;72.47;100963.84;82070;1294;3018132;-76
2024/01/31 07:43:23;;;;;;;50.60;24.00;;;;;;;1.82;72.95;100960.73;82032;1293;3011214;-75
2024/01/31 07:45:52;;;;;;;55.10;25.20;;;;;;;1.76;73.04;100962.13;80839;1294;3025593;-74
2024/01/31 07:48:19;;;;;;;60.20;26.90;;;;;;;1.78;73.20;100963.34;82056;1293;3013216;-72
2024/01/31 07:50:46;;;;;;;57.60;26.20;;;;;;;1.92;72.96;100959.17;82098;1293;3011216;-74
2024/01/31 07:53:14;;;;;;;59.50;24.80;;;;;;;1.97;72.79;100958.48;80846;1295;3051857;-72
2024/01/31 07:55:40;;;;;;;52.50;25.80;;;;;;;2.01;72.75;100957.09;82136;1294;3011418;-74
2024/01/31 07:58:07;;;;;;;63.80;28.00;;;;;;;2.08;72.75;100955.86;82115;1294;3011251;-73
2024/01/31 08:00:35;;;;;;;51.80;26.80;;;;;;;2.16;72.96;100956.52;80861;1292;3025708;-77
2024/01/31 08:03:01;;;;;;;51.00;26.80;;;;;;;2.37;71.85;100959.77;82118;1292;3012769;-78
2024/01/31 08:05:28;;;;;;;62.70;31.50;;;;;;;2.30;71.95;100954.42;82096;1294;3011450;-78
2024/01/31 08:07:56;;;;;;;63.40;31.80;;;;;;;2.38;72.77;100950.61;80844;1294;3026037;-77
2024/01/31 08:10:23;;;;;;;67.30;31.60;;;;;;;2.53;73.36;100949.85;82037;1296;3018429;-74
2024/01/31 08:12:50;;;;;;;69.80;32.70;;;;;;;2.66;73.60;100944.61;82140;1294;3011476;-78
2024/01/31 08:15:18;;;;;;;67.60;33.50;;;;;;;2.79;73.93;100941.44;80814;1295;3026568;-79
2024/01/31 08:17:47;;;;;;;66.70;34.60;;;;;;;2.90;73.46;100945.19;82090;1299;3013250;-75
2024/01/31 08:20:13;;;;;;;85.10;37.20;;;;;;;2.95;72.60;100947.59;82095;1297;3011479;-76
2024/01/31 08:22:42;;;;;;;94.20;44.20;;;;;;;2.73;72.43;100948.73;80859;1294;3050561;-78
2024/01/31 08:25:10;;;;;;;93.60;42.50;;;;;;;2.54;74.03;100952.63;82076;1294;3018226;-76
2024/01/31 08:27:37;;;;;;;93.60;40.80;;;;;;;2.84;73.54;100951.98;82103;1295;3011537;-76
2024/01/31 08:30:06;;;;;;;99.80;43.80;;;;;;;3.04;72.71;100953.75;80816;1294;3050195;-74
2024/01/31 08:32:34;;;;;;;110.00;46.80;;;;;;;3.08;72.40;100954.09;82125;1294;3012644;-75
2024/01/31 08:35:02;;;;;;;88.30;41.30;;;;;;;3.24;72.23;100954.86;82075;1294;3011425;-76
2024/01/31 08:37:30;;;;;;;96.60;38.10;;;;;;;3.38;71.66;100948.01;80832;1294;3051338;-76
2024/01/31 08:39:57;;;;;;;77.00;38.00;;;;;;;3.35;71.50;100950.80;82089;1294;3013282;-75
2024/01/31 08:42:28;;;;;;;84.00;36.20;;;;;;;3.47;70.73;100953.30;82074;1294;3011636;-78
2024/01/31 08:44:56;;;;;;;85.80;34.40;;;;;;;3.45;70.57;100952.10;80833;1294;3050381;-76
2024/01/31 08:47:22;;;;;;;66.20;26.90;;;;;;;3.50;69.78;100952.41;82138;1294;3012495;-76
2024/01/31 08:49:49;;;;;;;60.30;26.70;;;;;;;3.47;68.75;100944.81;81992;1294;3011263;-76
2024/01/31 08:52:17;;;;;;;53.70;23.00;;;;;;;3.62;68.28;100940.55;80845;1295;3026784;-76
2024/01/31 08:54:44;;;;;;;51.80;23.50;;;;;;;3.68;67.81;100941.52;82154;1293;3011300;-72
2024/01/31 08:57:11;;;;;;;63.50;26.00;;;;;;;3.62;67.87;100930.48;82120;1293;3011355;-74
2024/01/31 08:59:39;;;;;;;44.60;20.40;;;;;;;3.71;68.20;100926.59;80850;1293;3027229;-78
2024/01/31 09:02:07;;;;;;;31.60;16.00;;;;;;;3.76;68.20;100926.73;82115;1293;3018101;-75
2024/01/31 09:04:35;;;;;;;33.40;15.60;;;;;;;3.64;67.36;100921.98;82113;1292;3011217;-75
2024/01/31 09:07:03;;;;;;;26.40;13.90;;;;;;;3.64;66.98;100914.36;80846;1297;3052312;-72
2024/01/31 09:13:13;;;;;;;26.50;14.20;;;;;;;3.38;67.64;100917.17;80718;1298;3011623;-69
2024/01/31 09:15:39;;;;;;;30.00;13.80;;;;;;;3.44;67.43;100909.49;79418;1297;3012821;-73
2024/01/31 09:18:06;;;;;;;27.60;13.10;;;;;;;3.57;67.81;100903.15;79772;1297;3011672;-75
2024/01/31 09:20:35;;;;;;;32.50;15.80;;;;;;;3.78;67.31;100901.23;79096;1299;3026040;-71
2024/01/31 09:23:01;;;;;;;31.60;16.20;;;;;;;3.90;67.08;100894.52;79556;1298;3012874;-75
2024/01/31 09:25:28;;;;;;;35.70;17.80;;;;;;;3.97;67.09;100891.31;79447;1297;3011566;-70
2024/01/31 09:27:56;;;;;;;28.80;16.00;;;;;;;3.93;67.36;100893.45;78317;1296;3048089;-72
2024/01/31 09:30:22;;;;;;;29.40;15.40;;;;;;;4.07;67.12;100885.51;79800;1296;3012879;-69
2024/01/31 09:32:49;;;;;;;27.50;15.70;;;;;;;4.13;66.94;100881.27;79627;1298;3011562;-73
2024/01/31 09:35:17;;;;;;;28.30;14.80;;;;;;;4.23;66.77;100875.08;78280;1295;3026516;-68
2024/01/31 09:37:44;;;;;;;29.60;14.50;;;;;;;4.37;66.02;100879.77;79421;1297;3011776;-73
2024/01/31 09:40:15;;;;;;;27.40;14.50;;;;;;;4.22;66.14;100873.72;79507;1298;3013587;-70
2024/01/31 09:42:43;;;;;;;30.50;14.70;;;;;;;4.27;65.80;100862.72;78314;1296;3049036;-66
2024/01/31 09:45:11;;;;;;;30.10;15.90;;;;;;;4.32;66.33;100865.60;79611;1296;3013600;-69
2024/01/31 09:47:39;;;;;;;25.50;14.70;;;;;;;4.32;66.18;100861.25;79477;1298;3011867;-68
2024/01/31 09:50:07;;;;;;;26.70;13.90;;;;;;;4.06;66.98;100857.09;78347;1298;3052066;-76
2024/01/31 09:52:35;;;;;;;22.40;12.00;;;;;;;4.17;66.84;100848.44;79621;1296;3012862;-70
2024/01/31 09:55:04;;;;;;;26.00;13.60;;;;;;;4.32;66.65;100843.91;79750;1298;3011691;-66
2024/01/31 09:57:32;;;;;;;23.20;13.50;;;;;;;4.25;66.72;100834.46;78317;1298;3049342;-72
2024/01/31 09:59:59;;;;;;;27.20;14.20;;;;;;;4.03;67.81;100827.98;79642;1298;3013005;-74
2024/01/31 10:02:26;;;;;;;25.20;14.20;;;;;;;3.97;68.29;100829.10;79553;1297;3011655;-74
2024/01/31 10:04:54;;;;;;;25.20;13.70;;;;;;;4.07;67.94;100828.28;78305;1302;3027893;-72
2024/01/31 10:07:24;;;;;;;28.10;14.60;;;;;;;4.16;67.76;100820.36;79731;1295;3011685;-69
2024/01/31 10:09:53;;;;;;;28.30;15.40;;;;;;;3.95;68.02;100819.05;78518;1298;3056004;-75
2024/01/31 10:12:20;;;;;;;36.20;15.80;;;;;;;3.92;68.32;100816.48;79681;1298;3013018;-72
2024/01/31 10:14:48;;;;;;;36.10;17.50;;;;;;;3.98;68.33;100816.58;79677;1296;3011669;-71
2024/01/31 10:17:16;;;;;;;36.50;17.20;;;;;;;4.16;67.84;100814.29;78264;1300;3053620;-75
2024/01/31 10:19:43;;;;;;;32.00;15.10;;;;;;;4.27;67.30;100811.73;79592;1299;3018701;-71
2024/01/31 10:22:10;;;;;;;31.10;15.40;;;;;;;4.37;67.15;100810.38;79497;1298;3011571;-72
2024/01/31 10:24:39;;;;;;;30.50;15.00;;;;;;;4.38;67.25;100810.70;78306;1295;3055886;-70
2024/01/31 10:27:08;;;;;;;33.40;15.10;;;;;;;4.31;66.80;100820.87;79760;1295;3013131;-72
2024/01/31 10:29:37;;;;;;;21.90;13.00;;;;;;;4.26;66.74;100820.92;79696;1298;3012248;-70
2024/01/31 10:32:05;;;;;;;22.60;13.00;;;;;;;4.23;66.50;100816.11;78312;1297;3052016;-77
2024/01/31 10:34:35;;;;;;;24.00;15.00;;;;;;;4.35;66.60;100819.08;79532;1298;3013529;-69
2024/01/31 10:37:03;;;;;;;25.60;13.70;;;;;;;4.33;66.47;100821.36;78340;1298;3051127;-68
2024/01/31 10:39:30;;;;;;;29.50;15.80;;;;;;;4.13;66.88;100815.02;79607;1295;3013728;-70
2024/01/31 10:41:57;;;;;;;26.60;14.20;;;;;;;4.11;67.07;100811.77;79799;1296;3011596;-70
2024/01/31 10:44:25;;;;;;;25.20;13.30;;;;;;;3.95;67.10;100814.02;78450;1295;3051376;-69
2024/01/31 10:46:51;;;;;;;29.00;14.30;;;;;;;3.88;67.66;100809.43;79814;1298;3013249;-69
2024/01/31 10:49:18;;;;;;;29.30;14.10;;;;;;;4.03;67.52;100808.20;79629;1298;3012997;-69
2024/01/31 10:51:48;;;;;;;29.20;14.00;;;;;;;4.20;67.29;100806.95;78397;1298;3026651;-70
2024/01/31 10:54:14;;;;;;;29.40;14.00;;;;;;;4.20;67.03;100805.05;79711;1294;3013243;-67
2024/01/31 10:56:41;;;;;;;28.90;14.60;;;;;;;4.50;66.63;100795.10;79676;1294;3012032;-71
2024/01/31 10:59:09;;;;;;;27.40;13.80;;;;;;;4.50;66.12;100799.95;78265;1298;3051445;-70
2024/01/31 11:01:36;;;;;;;29.50;15.30;;;;;;;4.45;66.93;100797.09;79725;1298;3018419;-70
2024/01/31 11:04:03;;;;;;;25.50;13.30;;;;;;;4.70;66.43;100796.89;79799;1298;3011935;-69
2024/01/31 11:06:41;;;;;;;25.80;14.00;;;;;;;4.79;65.70;100795.71;78457;1298;3051512;-68